createdAt,value
2019-06-27T00:00:29.718Z,97934.52
2019-06-27T00:03:02.176Z,97934.19
2019-06-27T00:05:35.379Z,97942.07
2019-06-27T00:08:08.769Z,97940.50
2019-06-27T00:10:41.180Z,97944.45
2019-06-27T00:13:15.198Z,97940.03
2019-06-27T00:15:47.302Z,97941.72
2019-06-27T00:18:19.588Z,97930.26
2019-06-27T00:20:52.499Z,97931.84
2019-06-27T00:23:27.683Z,97928.59
2019-06-27T00:26:01.642Z,97931.41
2019-06-27T00:28:34.277Z,97935.76
2019-06-27T00:31:07.590Z,97932.63
2019-06-27T00:33:40.593Z,97935.99
2019-06-27T00:36:14.340Z,97938.24
2019-06-27T00:38:47.455Z,97930.83
2019-06-27T00:41:19.503Z,97936.08
2019-06-27T00:43:53.329Z,97937.06
2019-06-27T00:46:26.462Z,97934.13
2019-06-27T00:48:58.264Z,97931.17
2019-06-27T00:51:31.173Z,97929.45
2019-06-27T00:54:05.255Z,97923.95
2019-06-27T00:56:38.023Z,97919.30
2019-06-27T00:59:10.925Z,97920.08
2019-06-27T01:01:43.230Z,97917.94
2019-06-27T01:04:19.788Z,97917.78
2019-06-27T01:06:53.935Z,97920.63
2019-06-27T01:09:26.098Z,97921.05
2019-06-27T01:12:00.549Z,97922.63
2019-06-27T01:14:34.877Z,97924.07
2019-06-27T01:17:07.659Z,97924.66
2019-06-27T01:19:40.523Z,97925.78
2019-06-27T01:22:12.869Z,97931.67
2019-06-27T01:24:46.454Z,97932.67
2019-06-27T01:27:29.597Z,97926.70
2019-06-27T01:29:55.013Z,97918.95
2019-06-27T01:32:29.435Z,97928.52
2019-06-27T01:35:22.841Z,97928.75
2019-06-27T01:37:56.423Z,97920.96
2019-06-27T01:40:29.424Z,97922.11
2019-06-27T01:43:04.928Z,97924.99
2019-06-27T01:45:42.579Z,97927.17
2019-06-27T01:48:15.111Z,97922.63
2019-06-27T01:50:48.630Z,97919.71
2019-06-27T01:53:22.719Z,97915.91
2019-06-27T01:55:55.314Z,97925.68
2019-06-27T02:01:25.192Z,97913.63
2019-06-27T02:03:58.289Z,97922.00
2019-06-27T02:06:30.826Z,97924.81
2019-06-27T02:09:04.211Z,97913.47
2019-06-27T02:11:36.885Z,97918.33
2019-06-27T02:14:11.265Z,97916.88
2019-06-27T02:16:43.557Z,97914.66
2019-06-27T02:19:17.214Z,97919.91
2019-06-27T02:21:51.390Z,97914.26
2019-06-27T02:24:24.958Z,97916.16
2019-06-27T02:26:57.683Z,97912.56
2019-06-27T02:29:32.819Z,97919.44
2019-06-27T02:32:08.583Z,97918.66
2019-06-27T02:34:41.341Z,97920.10
2019-06-27T02:37:14.384Z,97922.76
2019-06-27T02:39:46.328Z,97925.63
2019-06-27T02:42:19.604Z,97929.06
2019-06-27T02:44:53.315Z,97930.73
2019-06-27T02:47:28.270Z,97923.40
2019-06-27T02:50:00.714Z,97928.94
2019-06-27T02:52:36.506Z,97931.23
2019-06-27T02:55:10.756Z,97934.95
2019-06-27T02:57:43.793Z,97932.73
2019-06-27T03:00:16.654Z,97929.42
2019-06-27T03:02:49.217Z,97929.47
2019-06-27T03:05:23.677Z,97926.26
2019-06-27T03:07:57.280Z,97924.38
2019-06-27T03:10:29.640Z,97932.12
2019-06-27T03:13:01.852Z,97931.89
2019-06-27T03:15:36.072Z,97926.16
2019-06-27T03:18:10.429Z,97929.80
2019-06-27T03:20:44.088Z,97935.17
2019-06-27T03:23:15.660Z,97925.83
2019-06-27T03:25:47.516Z,97932.63
2019-06-27T03:28:21.287Z,97930.97
2019-06-27T03:30:53.507Z,97932.80
2019-06-27T03:33:27.700Z,97937.14
2019-06-27T03:35:59.572Z,97939.48
2019-06-27T03:38:32.375Z,97941.55
2019-06-27T03:41:05.702Z,97944.30
2019-06-27T03:43:39.041Z,97936.02
2019-06-27T03:46:11.623Z,97935.16
2019-06-27T03:48:44.733Z,97943.27
2019-06-27T03:51:16.765Z,97942.27
2019-06-27T03:53:49.178Z,97940.25
2019-06-27T03:56:22.785Z,97945.03
2019-06-27T03:59:11.523Z,97942.45
2019-06-27T04:01:29.081Z,97936.34
2019-06-27T04:04:02.582Z,97937.49
2019-06-27T04:06:34.627Z,97929.07
2019-06-27T04:09:07.596Z,97931.84
2019-06-27T04:11:41.677Z,97936.77
2019-06-27T04:14:14.620Z,97936.34
2019-06-27T04:16:49.404Z,97940.72
2019-06-27T04:19:21.325Z,97943.93
2019-06-27T04:21:52.972Z,97939.36
2019-06-27T04:24:25.721Z,97938.11
2019-06-27T04:26:57.566Z,97943.34
2019-06-27T04:29:33.924Z,97943.18
2019-06-27T04:32:06.535Z,97944.33
2019-06-27T04:34:38.602Z,97940.42
2019-06-27T04:37:12.738Z,97940.81
2019-06-27T04:39:46.684Z,97939.66
2019-06-27T04:42:19.246Z,97938.48
2019-06-27T04:44:51.479Z,97940.89
2019-06-27T04:47:23.894Z,97935.27
2019-06-27T04:49:55.977Z,97937.98
2019-06-27T04:52:29.625Z,97935.09
2019-06-27T04:55:03.965Z,97938.67
2019-06-27T04:57:37.172Z,97944.81
2019-06-27T05:00:15.596Z,97938.27
2019-06-27T05:02:48.988Z,97938.44
2019-06-27T05:05:23.179Z,97941.41
2019-06-27T05:07:57.205Z,97947.39
2019-06-27T05:10:30.498Z,97948.30
2019-06-27T05:13:02.822Z,97933.59
2019-06-27T05:15:35.344Z,97944.59
2019-06-27T05:18:07.752Z,97949.83
2019-06-27T05:20:41.274Z,97945.35
2019-06-27T05:23:13.288Z,97942.13
2019-06-27T05:25:45.458Z,97945.38
2019-06-27T05:28:19.174Z,97934.80
2019-06-27T05:30:51.801Z,97936.53
2019-06-27T05:33:24.060Z,97936.42
2019-06-27T05:35:56.380Z,97942.75
2019-06-27T05:38:31.536Z,97936.41
2019-06-27T05:41:04.620Z,97938.30
2019-06-27T05:43:38.086Z,97934.48
2019-06-27T05:46:10.435Z,97937.72
2019-06-27T05:48:42.891Z,97945.55
2019-06-27T05:51:16.348Z,97942.69
2019-06-27T05:53:48.719Z,97943.70
2019-06-27T05:56:21.565Z,97947.72
2019-06-27T05:58:54.200Z,97950.09
2019-06-27T06:01:26.436Z,97942.22
2019-06-27T06:03:59.753Z,97940.08
2019-06-27T06:06:32.829Z,97944.25
2019-06-27T06:09:06.336Z,97948.94
2019-06-27T06:11:38.632Z,97941.45
2019-06-27T06:14:15.341Z,97949.63
2019-06-27T06:16:47.623Z,97953.69
2019-06-27T06:19:20.138Z,97954.20
2019-06-27T06:21:52.337Z,97940.91
2019-06-27T06:24:25.028Z,97936.64
2019-06-27T06:26:58.702Z,97943.19
2019-06-27T06:29:34.238Z,97942.12
2019-06-27T06:32:11.335Z,97939.19
2019-06-27T06:34:49.866Z,97939.84
2019-06-27T06:37:24.845Z,97939.41
2019-06-27T06:39:59.868Z,97939.98
2019-06-27T06:42:35.394Z,97941.23
2019-06-27T06:45:12.817Z,97940.64
2019-06-27T06:47:56.419Z,97938.34
2019-06-27T06:50:30.019Z,97936.73
2019-06-27T06:53:02.530Z,97934.72
2019-06-27T06:55:40.463Z,97931.94
2019-06-27T06:58:15.632Z,97932.32
2019-06-27T07:01:25.069Z,97932.84
2019-06-27T07:04:08.274Z,97931.39
2019-06-27T07:06:46.153Z,97936.47
2019-06-27T07:09:21.207Z,97935.05
2019-06-27T07:12:02.228Z,97932.35
2019-06-27T07:14:36.271Z,97930.25
2019-06-27T07:17:09.019Z,97932.64
2019-06-27T07:19:43.502Z,97942.65
2019-06-27T07:22:32.471Z,97937.64
2019-06-27T07:25:22.482Z,97946.28
2019-06-27T07:28:22.745Z,97932.64
2019-06-27T07:30:56.231Z,97932.52
2019-06-27T07:33:29.757Z,97939.19
2019-06-27T07:36:02.018Z,97939.98
2019-06-27T07:38:33.708Z,97929.49
2019-06-27T07:41:05.518Z,97925.58
2019-06-27T07:43:37.573Z,97925.35
2019-06-27T07:46:24.013Z,97923.19
2019-06-27T07:48:43.319Z,97928.64
2019-06-27T07:51:16.664Z,97925.41
2019-06-27T07:53:50.019Z,97924.59
2019-06-27T07:56:21.821Z,97923.41
2019-06-27T07:58:53.790Z,97923.74
2019-06-27T08:01:34.920Z,97914.28
2019-06-27T08:03:58.938Z,97920.96
2019-06-27T08:06:30.782Z,97911.26
2019-06-27T08:09:03.825Z,97909.95
2019-06-27T08:11:35.743Z,97911.31
2019-06-27T08:14:10.944Z,97906.11
2019-06-27T08:16:43.037Z,97910.35
2019-06-27T08:19:14.912Z,97912.05
2019-06-27T08:21:47.727Z,97902.03
2019-06-27T08:24:19.417Z,97899.80
2019-06-27T08:26:51.229Z,97904.43
2019-06-27T08:29:23.234Z,97902.31
2019-06-27T08:31:56.410Z,97901.72
2019-06-27T08:34:31.343Z,97905.61
2019-06-27T08:37:03.553Z,97903.05
2019-06-27T08:39:37.289Z,97907.30
2019-06-27T08:42:11.853Z,97902.88
2019-06-27T08:44:43.588Z,97898.10
2019-06-27T08:47:24.239Z,97899.20
2019-06-27T08:49:57.543Z,97898.23
2019-06-27T08:52:29.085Z,97893.69
2019-06-27T08:55:00.896Z,97895.64
2019-06-27T08:57:33.981Z,97893.06
2019-06-27T09:00:11.595Z,97892.75
2019-06-27T09:02:46.867Z,97892.30
2019-06-27T09:05:18.129Z,97883.95
2019-06-27T09:07:50.301Z,97891.58
2019-06-27T09:10:22.687Z,97888.34
2019-06-27T09:12:57.599Z,97892.50
2019-06-27T09:15:31.465Z,97890.54
2019-06-27T09:18:03.340Z,97890.12
2019-06-27T09:20:35.476Z,97888.22
2019-06-27T09:23:08.126Z,97886.66
2019-06-27T09:25:41.357Z,97883.02
2019-06-27T09:28:13.613Z,97887.21
2019-06-27T09:30:45.545Z,97891.19
2019-06-27T09:33:17.270Z,97886.75
2019-06-27T09:35:51.904Z,97886.92
2019-06-27T09:38:51.803Z,97889.53
2019-06-27T09:41:25.120Z,97891.11
2019-06-27T09:43:58.975Z,97882.61
2019-06-27T09:46:31.022Z,97880.28
2019-06-27T09:49:03.425Z,97884.19
2019-06-27T09:51:36.170Z,97879.27
2019-06-27T09:54:08.237Z,97875.86
2019-06-27T09:56:41.335Z,97873.70
2019-06-27T09:59:15.542Z,97871.86
2019-06-27T10:01:48.382Z,97870.77
2019-06-27T10:04:20.130Z,97872.82
2019-06-27T10:06:54.920Z,97866.63
2019-06-27T10:09:26.771Z,97867.94
2019-06-27T10:11:59.152Z,97875.70
2019-06-27T10:14:31.265Z,97867.24
2019-06-27T10:17:06.153Z,97858.41
2019-06-27T10:19:37.826Z,97856.09
2019-06-27T10:22:10.055Z,97853.33
2019-06-27T10:24:42.109Z,97849.22
2019-06-27T10:27:16.563Z,97841.16
2019-06-27T10:29:49.742Z,97842.60
2019-06-27T10:32:22.944Z,97847.71
2019-06-27T10:34:58.633Z,97847.77
2019-06-27T10:37:31.643Z,97836.25
2019-06-27T10:40:07.171Z,97842.26
2019-06-27T10:42:40.432Z,97833.94
2019-06-27T10:45:18.163Z,97830.81
2019-06-27T10:47:55.174Z,97833.06
2019-06-27T10:50:27.332Z,97824.09
2019-06-27T10:52:59.938Z,97825.81
2019-06-27T10:55:33.135Z,97821.56
2019-06-27T10:58:05.196Z,97818.27
2019-06-27T11:00:37.157Z,97814.42
2019-06-27T11:03:15.528Z,97808.55
2019-06-27T11:05:45.074Z,97805.45
2019-06-27T11:08:20.004Z,97796.40
2019-06-27T11:10:52.309Z,97793.66
2019-06-27T11:13:25.674Z,97793.66
2019-06-27T11:15:57.962Z,97792.86
2019-06-27T11:18:32.232Z,97788.91
2019-06-27T11:21:05.668Z,97789.80
2019-06-27T11:23:39.479Z,97769.29
2019-06-27T11:26:12.294Z,97773.39
2019-06-27T11:28:48.286Z,97770.02
2019-06-27T11:31:20.621Z,97762.94
2019-06-27T11:33:57.500Z,97766.09
2019-06-27T11:36:30.655Z,97764.25
2019-06-27T11:39:02.737Z,97761.16
2019-06-27T11:41:35.783Z,97749.53
2019-06-27T11:44:09.148Z,97754.53
2019-06-27T11:46:41.175Z,97754.61
2019-06-27T11:49:14.317Z,97745.29
2019-06-27T11:51:49.476Z,97742.30
2019-06-27T11:54:21.764Z,97739.63
2019-06-27T11:56:53.630Z,97745.02
2019-06-27T11:59:26.163Z,97735.75
2019-06-27T12:01:57.723Z,97733.55
2019-06-27T12:04:29.721Z,97728.06
2019-06-27T12:07:01.173Z,97723.45
2019-06-27T12:09:34.113Z,97720.87
2019-06-27T12:12:06.607Z,97712.78
2019-06-27T12:14:42.476Z,97710.31
2019-06-27T12:17:14.187Z,97709.00
2019-06-27T12:19:46.169Z,97702.94
2019-06-27T12:22:18.866Z,97695.15
2019-06-27T12:24:50.934Z,97694.11
2019-06-27T12:27:24.007Z,97697.09
2019-06-27T12:30:00.269Z,97694.91
2019-06-27T12:32:50.411Z,97690.41
2019-06-27T12:35:10.887Z,97688.02
2019-06-27T12:37:43.800Z,97687.36
2019-06-27T12:40:16.341Z,97682.02
2019-06-27T12:42:48.294Z,97675.51
2019-06-27T12:45:20.421Z,97674.72
2019-06-27T12:47:51.880Z,97677.16
2019-06-27T12:50:25.400Z,97675.05
2019-06-27T12:52:57.037Z,97676.04
2019-06-27T12:55:31.775Z,97671.18
2019-06-27T12:58:06.632Z,97664.33
2019-06-27T13:00:42.199Z,97668.30
2019-06-27T13:03:16.796Z,97662.36
2019-06-27T13:05:57.400Z,97663.45
2019-06-27T13:08:31.424Z,97655.20
2019-06-27T13:11:05.483Z,97656.72
2019-06-27T13:13:39.345Z,97647.41
2019-06-27T13:16:12.273Z,97644.16
2019-06-27T13:18:46.832Z,97645.28
2019-06-27T13:21:20.972Z,97646.39
2019-06-27T13:23:53.289Z,97645.16
2019-06-27T13:26:26.028Z,97642.23
2019-06-27T13:29:00.018Z,97643.61
2019-06-27T13:31:33.496Z,97635.56
2019-06-27T13:34:05.533Z,97631.86
2019-06-27T13:36:52.162Z,97628.95
2019-06-27T13:39:25.057Z,97620.94
2019-06-27T13:41:57.517Z,97617.35
2019-06-27T13:44:29.917Z,97613.40
2019-06-27T13:47:03.552Z,97607.98
2019-06-27T13:49:36.360Z,97607.30
2019-06-27T13:52:09.865Z,97600.45
2019-06-27T13:54:42.177Z,97606.05
2019-06-27T13:57:14.702Z,97604.85
2019-06-27T13:59:48.718Z,97596.23
2019-06-27T14:02:21.099Z,97594.42
2019-06-27T14:04:58.359Z,97587.80
2019-06-27T14:07:31.012Z,97585.59
2019-06-27T14:10:06.307Z,97583.84
2019-06-27T14:12:38.977Z,97578.83
2019-06-27T14:15:11.158Z,97582.63
2019-06-27T14:17:43.437Z,97573.70
2019-06-27T14:20:16.859Z,97577.52
2019-06-27T14:22:50.920Z,97572.63
2019-06-27T14:25:22.781Z,97563.97
2019-06-27T14:27:54.712Z,97568.24
2019-06-27T14:30:26.695Z,97563.25
2019-06-27T14:32:58.753Z,97558.23
2019-06-27T14:35:32.435Z,97562.05
2019-06-27T14:38:04.492Z,97555.03
2019-06-27T14:40:40.163Z,97548.67
2019-06-27T14:43:13.627Z,97544.66
2019-06-27T14:45:46.674Z,97545.73
2019-06-27T14:48:18.891Z,97532.16
2019-06-27T14:50:50.739Z,97531.66
2019-06-27T14:53:22.752Z,97533.45
2019-06-27T14:55:55.042Z,97537.64
2019-06-27T14:58:26.981Z,97531.22
2019-06-27T15:00:59.725Z,97526.98
2019-06-27T15:03:32.828Z,97523.37
2019-06-27T15:06:05.569Z,97519.94
2019-06-27T15:08:38.163Z,97517.03
2019-06-27T15:11:10.431Z,97518.48
2019-06-27T15:13:42.451Z,97517.96
2019-06-27T15:16:17.806Z,97515.66
2019-06-27T15:18:50.473Z,97513.69
2019-06-27T15:21:22.285Z,97503.13
2019-06-27T15:23:54.501Z,97500.74
2019-06-27T15:26:26.979Z,97503.50
2019-06-27T15:28:59.470Z,97503.06
2019-06-27T15:31:33.115Z,97495.56
2019-06-27T15:34:05.881Z,97492.43
2019-06-27T15:36:39.064Z,97485.31
2019-06-27T15:39:12.155Z,97477.42
2019-06-27T15:41:45.147Z,97477.92
2019-06-27T15:44:20.744Z,97475.33
2019-06-27T15:46:54.199Z,97473.28
2019-06-27T15:49:29.991Z,97475.94
2019-06-27T15:52:02.794Z,97470.59
2019-06-27T15:54:37.256Z,97473.91
2019-06-27T15:57:10.187Z,97466.46
2019-06-27T15:59:42.945Z,97463.73
2019-06-27T16:02:15.563Z,97469.54
2019-06-27T16:04:48.328Z,97465.06
2019-06-27T16:07:22.279Z,97458.83
2019-06-27T16:09:54.288Z,97459.62
2019-06-27T16:12:26.152Z,97459.64
2019-06-27T16:14:58.220Z,97458.78
2019-06-27T16:17:30.108Z,97459.67
2019-06-27T16:20:02.651Z,97460.19
2019-06-27T16:22:36.171Z,97455.68
2019-06-27T16:25:10.593Z,97452.34
2019-06-27T16:27:42.851Z,97444.05
2019-06-27T16:30:16.798Z,97440.72
2019-06-27T16:32:52.192Z,97441.31
2019-06-27T16:35:26.113Z,97443.70
2019-06-27T16:38:00.007Z,97444.82
2019-06-27T16:40:58.971Z,97441.73
2019-06-27T16:44:01.902Z,97442.91
2019-06-27T16:47:07.143Z,97443.38
2019-06-27T16:50:02.335Z,97450.14
2019-06-27T16:52:38.111Z,97443.48
2019-06-27T16:55:20.154Z,97448.91
2019-06-27T16:57:54.876Z,97445.12
2019-06-27T17:00:27.528Z,97445.61
2019-06-27T17:03:02.277Z,97443.88
2019-06-27T17:05:35.344Z,97443.20
2019-06-27T17:08:09.533Z,97448.48
2019-06-27T17:10:42.313Z,97446.31
2019-06-27T17:13:14.788Z,97436.55
2019-06-27T17:15:47.391Z,97432.09
2019-06-27T17:18:20.929Z,97433.92
2019-06-27T17:20:54.194Z,97436.90
2019-06-27T17:23:28.898Z,97437.91
2019-06-27T17:26:11.384Z,97436.59
2019-06-27T17:28:45.420Z,97426.49
2019-06-27T17:31:54.789Z,97429.62
2019-06-27T17:34:35.876Z,97430.92
2019-06-27T17:37:11.673Z,97433.30
2019-06-27T17:39:47.922Z,97425.39
2019-06-27T17:42:24.412Z,97432.41
2019-06-27T17:45:04.169Z,97430.09
2019-06-27T17:47:40.005Z,97445.77
2019-06-27T17:50:12.653Z,97437.34
2019-06-27T17:52:46.028Z,97432.28
2019-06-27T17:58:25.265Z,97429.64
2019-06-27T18:00:58.003Z,97422.31
2019-06-27T18:03:31.778Z,97418.27
2019-06-27T18:06:04.281Z,97417.68
2019-06-27T18:08:39.076Z,97419.20
2019-06-27T18:11:12.892Z,97423.64
2019-06-27T18:13:46.931Z,97421.48
2019-06-27T18:16:33.710Z,97421.34
2019-06-27T18:19:29.105Z,97416.09
2019-06-27T18:22:01.929Z,97420.88
2019-06-27T18:24:37.431Z,97418.73
2019-06-27T18:27:10.959Z,97423.11
2019-06-27T18:30:12.405Z,97416.57
2019-06-27T18:32:50.434Z,97414.30
2019-06-27T18:35:31.492Z,97419.45
2019-06-27T18:38:05.073Z,97420.25
2019-06-27T18:41:00.822Z,97418.42
2019-06-27T18:43:57.485Z,97421.84
2019-06-27T18:46:49.806Z,97423.66
2019-06-27T18:49:25.676Z,97422.39
2019-06-27T18:52:25.381Z,97429.78
2019-06-27T18:55:49.011Z,97427.16
2019-06-27T18:59:12.895Z,97426.94
2019-06-27T19:05:46.527Z,97447.28
2019-06-27T19:08:22.860Z,97444.22
2019-06-27T19:10:55.160Z,97436.59
2019-06-27T19:13:27.085Z,97438.06
2019-06-27T19:16:09.039Z,97449.42
2019-06-27T19:18:47.486Z,97446.73
2019-06-27T19:21:36.441Z,97442.86
2019-06-27T19:24:18.790Z,97451.39
2019-06-27T19:26:57.571Z,97451.20
2019-06-27T19:29:36.797Z,97443.44
2019-06-27T19:32:14.882Z,97454.50
2019-06-27T19:34:57.463Z,97448.86
2019-06-27T19:37:36.263Z,97462.08
2019-06-27T19:40:16.595Z,97458.19
2019-06-27T19:43:26.704Z,97461.27
2019-06-27T19:45:58.477Z,97468.29
2019-06-27T19:48:37.960Z,97469.23
2019-06-27T19:51:22.111Z,97472.53
2019-06-27T19:54:02.627Z,97474.09
2019-06-27T19:56:42.277Z,97482.24
2019-06-27T19:59:20.497Z,97482.02
2019-06-27T20:01:56.887Z,97485.13
2019-06-27T20:04:37.698Z,97489.17
2019-06-27T20:07:14.185Z,97485.50
2019-06-27T20:09:51.686Z,97491.04
2019-06-27T20:12:26.431Z,97492.38
2019-06-27T20:15:01.155Z,97493.33
2019-06-27T20:17:39.007Z,97493.87
2019-06-27T20:20:14.375Z,97484.72
2019-06-27T20:22:50.267Z,97480.84
2019-06-27T20:25:25.182Z,97479.08
2019-06-27T20:28:02.143Z,97486.45
2019-06-27T20:30:36.108Z,97483.88
2019-06-27T20:33:11.459Z,97484.45
2019-06-27T20:35:46.181Z,97482.72
2019-06-27T20:38:33.905Z,97488.52
2019-06-27T20:40:55.725Z,97489.06
2019-06-27T20:43:29.482Z,97486.41
2019-06-27T20:46:08.098Z,97494.59
2019-06-27T20:48:42.511Z,97488.00
2019-06-27T20:51:24.044Z,97491.13
2019-06-27T20:53:59.115Z,97499.60
2019-06-27T20:56:32.430Z,97490.88
2019-06-27T20:59:05.705Z,97488.91
2019-06-27T21:01:39.495Z,97494.70
2019-06-27T21:04:17.896Z,97492.98
2019-06-27T21:06:52.460Z,97488.38
2019-06-27T21:09:28.015Z,97485.58
2019-06-27T21:12:01.332Z,97490.19
2019-06-27T21:14:35.181Z,97489.48
2019-06-27T21:17:10.343Z,97487.09
2019-06-27T21:19:46.362Z,97489.86
2019-06-27T21:22:19.911Z,97490.77
2019-06-27T21:24:57.883Z,97485.91
2019-06-27T21:27:34.652Z,97480.47
2019-06-27T21:30:14.349Z,97484.80
2019-06-27T21:32:49.911Z,97478.55
2019-06-27T21:35:23.921Z,97476.45
2019-06-27T21:40:53.199Z,97479.23
2019-06-27T21:43:34.194Z,97472.23
2019-06-27T21:46:08.767Z,97480.81
2019-06-27T21:48:41.924Z,97478.67
2019-06-27T21:51:17.944Z,97477.63
2019-06-27T21:53:50.952Z,97476.95
2019-06-27T21:56:23.774Z,97474.39
2019-06-27T21:58:58.467Z,97472.39
2019-06-27T22:01:34.534Z,97468.54
2019-06-27T22:04:08.453Z,97472.13
2019-06-27T22:06:42.812Z,97472.45
2019-06-27T22:09:24.922Z,97471.37
2019-06-27T22:12:16.149Z,97473.87
2019-06-27T22:14:51.081Z,97471.84
2019-06-27T22:17:27.400Z,97467.12
2019-06-27T22:20:14.935Z,97470.56
2019-06-27T22:22:48.807Z,97461.30
2019-06-27T22:25:38.875Z,97452.61
2019-06-27T22:27:59.982Z,97449.05
2019-06-27T22:30:35.559Z,97439.13
2019-06-27T22:33:10.898Z,97437.20
2019-06-27T22:35:44.276Z,97438.61
2019-06-27T22:38:36.506Z,97429.62
2019-06-27T22:41:29.712Z,97433.40
2019-06-27T22:44:22.124Z,97429.91
2019-06-27T22:47:14.624Z,97428.62
2019-06-27T22:49:49.363Z,97426.80
2019-06-27T22:52:25.433Z,97419.47
2019-06-27T22:55:10.650Z,97417.63
2019-06-27T22:57:43.026Z,97412.37
2019-06-27T23:00:18.034Z,97403.47
2019-06-27T23:02:50.913Z,97400.58
2019-06-27T23:05:27.489Z,97409.22
2019-06-27T23:08:01.182Z,97416.22
2019-06-27T23:10:34.661Z,97418.73
2019-06-27T23:13:11.427Z,97422.84
2019-06-27T23:15:44.415Z,97416.82
2019-06-27T23:18:18.212Z,97392.08
2019-06-27T23:20:51.703Z,97392.28
2019-06-27T23:23:27.246Z,97402.42
2019-06-27T23:26:21.214Z,97400.81
2019-06-27T23:28:59.500Z,97397.82
2019-06-27T23:31:33.372Z,97397.82
2019-06-27T23:34:08.056Z,97401.14
2019-06-27T23:36:41.032Z,97390.01
2019-06-27T23:39:34.866Z,97387.66
2019-06-27T23:42:09.322Z,97388.96
2019-06-27T23:44:46.192Z,97384.34
2019-06-27T23:47:20.447Z,97384.34
2019-06-27T23:49:56.202Z,97375.66
2019-06-27T23:52:34.093Z,97382.95
2019-06-27T23:55:12.070Z,97375.86
2019-06-27T23:57:46.819Z,97378.42
